createdAt,value
2023-02-11T00:04:10.214Z,19.61
2023-02-11T00:09:32.479Z,19.60
2023-02-11T00:14:54.186Z,19.55
2023-02-11T00:20:16.126Z,19.52
2023-02-11T00:25:45.670Z,19.48
2023-02-11T00:31:07.634Z,19.45
2023-02-11T00:36:30.258Z,19.42
2023-02-11T00:41:52.206Z,19.38
2023-02-11T00:47:14.062Z,19.36
2023-02-11T00:52:35.899Z,19.32
2023-02-11T00:57:59.010Z,19.29
2023-02-11T01:03:20.919Z,19.27
2023-02-11T01:08:42.632Z,19.25
2023-02-11T01:14:04.359Z,19.21
2023-02-11T01:19:26.103Z,19.20
2023-02-11T01:24:47.885Z,19.17
2023-02-11T01:30:12.227Z,19.14
2023-02-11T01:35:34.027Z,19.12
2023-02-11T01:41:02.014Z,19.11
2023-02-11T01:46:29.763Z,19.07
2023-02-11T01:51:55.221Z,19.06
2023-02-11T01:57:23.503Z,19.03
2023-02-11T02:02:51.092Z,19.02
2023-02-11T02:08:19.034Z,18.99
2023-02-11T02:13:40.819Z,18.97
2023-02-11T02:19:17.698Z,18.96
2023-02-11T02:25:16.936Z,18.93
2023-02-11T02:30:46.946Z,18.88
2023-02-11T02:36:23.768Z,18.89
2023-02-11T02:41:47.584Z,18.86
2023-02-11T02:47:09.272Z,18.84
2023-02-11T02:52:44.254Z,18.83
2023-02-11T02:58:22.699Z,18.81
2023-02-11T03:03:47.214Z,18.78
2023-02-11T03:09:27.777Z,18.77
2023-02-11T03:14:52.392Z,18.74
2023-02-11T03:20:17.623Z,18.73
2023-02-11T03:25:46.014Z,18.71
2023-02-11T03:31:44.652Z,18.70
2023-02-11T03:37:13.248Z,18.68
2023-02-11T03:42:41.007Z,18.66
2023-02-11T03:48:08.082Z,18.64
2023-02-11T03:53:29.782Z,18.63
2023-02-11T03:58:51.526Z,18.62
2023-02-11T04:04:13.293Z,18.60
2023-02-11T04:09:36.438Z,18.56
2023-02-11T04:14:58.357Z,18.56
2023-02-11T04:20:20.366Z,18.55
2023-02-11T04:25:43.033Z,18.54
2023-02-11T04:31:04.952Z,18.51
2023-02-11T04:36:27.028Z,18.50
2023-02-11T04:41:49.167Z,18.49
2023-02-11T04:47:12.861Z,18.47
2023-02-11T04:52:34.911Z,18.47
2023-02-11T04:57:56.709Z,18.45
2023-02-11T05:03:18.698Z,18.43
2023-02-11T05:08:40.691Z,18.41
2023-02-11T05:14:02.489Z,18.40
2023-02-11T05:19:24.177Z,18.39
2023-02-11T05:24:45.898Z,18.36
2023-02-11T05:30:09.035Z,18.36
2023-02-11T05:35:30.780Z,18.35
2023-02-11T05:40:52.478Z,18.34
2023-02-11T05:46:14.309Z,18.33
2023-02-11T05:51:36.160Z,18.29
2023-02-11T05:56:57.909Z,18.30
2023-02-11T06:02:19.779Z,18.27
2023-02-11T06:07:41.804Z,18.26
2023-02-11T06:13:04.281Z,18.24
2023-02-11T06:18:26.220Z,18.23
2023-02-11T06:23:48.144Z,18.22
2023-02-11T06:29:10.312Z,18.21
2023-02-11T06:34:32.034Z,18.22
2023-02-11T06:39:53.737Z,18.24
2023-02-11T06:45:15.630Z,18.45
2023-02-11T06:50:37.350Z,18.96
2023-02-11T06:56:06.378Z,19.60
2023-02-11T07:01:28.986Z,20.14
2023-02-11T07:06:50.737Z,20.50
2023-02-11T07:12:12.481Z,20.65
2023-02-11T07:17:35.905Z,20.63
2023-02-11T07:22:57.952Z,20.55
2023-02-11T07:28:19.767Z,20.43
2023-02-11T07:33:42.330Z,20.30
2023-02-11T07:39:04.305Z,20.16
2023-02-11T07:44:26.170Z,20.04
2023-02-11T07:49:47.879Z,19.90
2023-02-11T07:55:10.312Z,19.77
2023-02-11T08:00:32.068Z,19.63
2023-02-11T08:05:53.755Z,19.51
2023-02-11T08:11:22.031Z,19.41
2023-02-11T08:16:43.785Z,19.27
2023-02-11T08:22:05.685Z,19.19
2023-02-11T08:27:27.525Z,19.14
2023-02-11T08:32:49.248Z,19.12
2023-02-11T08:38:10.945Z,19.12
2023-02-11T08:43:33.545Z,19.49
2023-02-11T08:48:55.324Z,19.92
2023-02-11T08:54:17.558Z,20.28
2023-02-11T08:59:40.220Z,20.59
2023-02-11T09:05:01.928Z,20.93
2023-02-11T09:10:23.664Z,21.22
2023-02-11T09:15:46.982Z,21.42
2023-02-11T09:21:10.167Z,21.52
2023-02-11T09:26:33.972Z,21.53
2023-02-11T09:31:55.862Z,21.43
2023-02-11T09:37:17.632Z,21.26
2023-02-11T09:43:02.333Z,21.08
2023-02-11T09:48:25.976Z,20.87
2023-02-11T09:53:54.599Z,20.72
2023-02-11T09:59:17.791Z,20.52
2023-02-11T10:05:07.191Z,20.38
2023-02-11T10:10:50.446Z,20.27
2023-02-11T10:16:18.460Z,20.16
2023-02-11T10:22:04.720Z,20.06
2023-02-11T10:27:35.605Z,19.96
2023-02-11T10:33:06.747Z,19.90
2023-02-11T10:38:28.492Z,19.78
2023-02-11T10:43:51.052Z,19.73
2023-02-11T10:49:38.966Z,19.86
2023-02-11T10:55:17.361Z,20.14
2023-02-11T11:00:41.123Z,20.49
2023-02-11T11:06:05.765Z,20.81
2023-02-11T11:11:27.607Z,21.11
2023-02-11T11:16:56.430Z,21.37
2023-02-11T11:22:24.364Z,21.54
2023-02-11T11:27:50.763Z,21.59
2023-02-11T11:33:25.076Z,21.50
2023-02-11T11:39:00.733Z,21.37
2023-02-11T11:44:29.922Z,21.21
2023-02-11T11:50:39.720Z,21.08
2023-02-11T11:56:23.181Z,20.93
2023-02-11T12:01:59.253Z,20.78
2023-02-11T12:07:21.128Z,20.63
2023-02-11T12:13:17.214Z,20.49
2023-02-11T12:18:49.969Z,20.36
2023-02-11T12:24:39.125Z,20.26
2023-02-11T12:30:28.704Z,20.16
2023-02-11T12:35:59.438Z,20.06
2023-02-11T12:41:51.707Z,20.01
2023-02-11T12:47:39.275Z,19.95
2023-02-11T12:53:30.185Z,19.88
2023-02-11T12:58:56.241Z,19.94
2023-02-11T13:04:38.677Z,20.26
2023-02-11T13:10:09.430Z,20.69
2023-02-11T13:15:31.557Z,21.13
2023-02-11T13:21:09.513Z,21.51
2023-02-11T13:26:54.265Z,21.80
2023-02-11T13:32:16.430Z,21.96
2023-02-11T13:37:39.912Z,22.04
2023-02-11T13:43:04.673Z,21.99
2023-02-11T13:48:38.739Z,21.86
2023-02-11T13:54:01.212Z,21.65
2023-02-11T13:59:25.942Z,21.46
2023-02-11T14:05:24.823Z,21.32
2023-02-11T14:10:52.557Z,21.13
2023-02-11T14:16:22.601Z,20.99
2023-02-11T14:21:46.796Z,20.86
2023-02-11T14:27:21.592Z,20.74
2023-02-11T14:32:55.201Z,20.60
2023-02-11T14:38:39.797Z,20.49
2023-02-11T14:44:06.555Z,20.37
2023-02-11T14:49:35.913Z,20.31
2023-02-11T14:55:23.818Z,20.24
2023-02-11T15:00:56.295Z,20.19
2023-02-11T15:06:28.179Z,20.16
2023-02-11T15:11:52.479Z,20.14
2023-02-11T15:17:19.215Z,20.11
2023-02-11T15:22:40.981Z,20.09
2023-02-11T15:28:21.613Z,20.10
2023-02-11T15:33:43.918Z,20.06
2023-02-11T15:39:31.709Z,20.07
2023-02-11T15:45:11.962Z,20.07
2023-02-11T15:50:41.009Z,20.07
2023-02-11T15:56:19.626Z,20.10
2023-02-11T16:01:42.490Z,20.06
2023-02-11T16:07:05.330Z,20.06
2023-02-11T16:12:27.393Z,20.08
2023-02-11T16:17:49.244Z,20.10
2023-02-11T16:23:21.979Z,20.28
2023-02-11T16:28:43.762Z,20.51
2023-02-11T16:34:21.221Z,20.78
2023-02-11T16:39:43.111Z,21.01
2023-02-11T16:45:05.195Z,21.19
2023-02-11T16:50:26.875Z,21.31
2023-02-11T16:55:49.328Z,21.36
2023-02-11T17:01:13.923Z,21.35
2023-02-11T17:06:35.968Z,21.31
2023-02-11T17:11:57.885Z,21.26
2023-02-11T17:17:19.675Z,21.14
2023-02-11T17:22:41.787Z,21.00
2023-02-11T17:28:07.862Z,20.88
2023-02-11T17:33:29.641Z,20.79
2023-02-11T17:38:51.999Z,20.71
2023-02-11T17:44:15.614Z,20.66
2023-02-11T17:49:37.532Z,20.63
2023-02-11T17:54:59.246Z,20.58
2023-02-11T18:00:21.576Z,20.53
2023-02-11T18:05:43.881Z,20.48
2023-02-11T18:11:10.326Z,20.48
2023-02-11T18:16:34.519Z,20.53
2023-02-11T18:21:58.617Z,20.80
2023-02-11T18:27:22.900Z,21.13
2023-02-11T18:32:45.031Z,21.40
2023-02-11T18:38:06.944Z,21.52
2023-02-11T18:43:33.801Z,21.65
2023-02-11T18:48:56.412Z,21.69
2023-02-11T18:54:18.234Z,21.69
2023-02-11T18:59:39.908Z,21.70
2023-02-11T19:05:01.820Z,21.72
2023-02-11T19:10:23.942Z,21.72
2023-02-11T19:15:46.783Z,21.69
2023-02-11T19:21:10.383Z,21.67
2023-02-11T19:26:32.123Z,21.68
2023-02-11T19:31:54.431Z,21.69
2023-02-11T19:37:16.260Z,21.65
2023-02-11T19:42:38.918Z,21.63
2023-02-11T19:48:00.673Z,21.60
2023-02-11T19:53:23.220Z,21.58
2023-02-11T19:58:44.954Z,21.57
2023-02-11T20:04:07.088Z,21.57
2023-02-11T20:09:31.178Z,21.57
2023-02-11T20:14:52.924Z,21.54
2023-02-11T20:20:14.739Z,21.55
2023-02-11T20:25:40.419Z,21.57
2023-02-11T20:31:02.723Z,21.72
2023-02-11T20:36:27.646Z,21.95
2023-02-11T20:41:50.424Z,22.17
2023-02-11T20:47:12.501Z,22.36
2023-02-11T20:52:34.436Z,22.48
2023-02-11T20:57:56.216Z,22.54
2023-02-11T21:03:17.994Z,22.52
2023-02-11T21:08:39.737Z,22.50
2023-02-11T21:14:02.268Z,22.36
2023-02-11T21:19:24.064Z,22.20
2023-02-11T21:24:45.809Z,22.05
2023-02-11T21:30:08.111Z,21.97
2023-02-11T21:35:32.436Z,21.87
2023-02-11T21:40:54.551Z,21.77
2023-02-11T21:46:18.147Z,21.69
2023-02-11T21:51:39.899Z,21.56
2023-02-11T21:57:03.279Z,21.42
2023-02-11T22:02:25.224Z,21.31
2023-02-11T22:07:47.870Z,21.20
2023-02-11T22:13:09.613Z,21.10
2023-02-11T22:18:31.617Z,21.01
2023-02-11T22:23:54.870Z,20.89
2023-02-11T22:29:16.648Z,20.80
2023-02-11T22:34:38.925Z,20.72
2023-02-11T22:40:00.584Z,20.65
2023-02-11T22:45:22.238Z,20.56
2023-02-11T22:50:43.939Z,20.48
2023-02-11T22:56:08.069Z,20.41
2023-02-11T23:01:31.589Z,20.37
2023-02-11T23:06:53.370Z,20.31
2023-02-11T23:12:15.105Z,20.25
2023-02-11T23:17:36.818Z,20.23
2023-02-11T23:22:58.523Z,20.18
2023-02-11T23:28:20.344Z,20.13
2023-02-11T23:33:42.138Z,20.09
2023-02-11T23:39:04.768Z,20.07
2023-02-11T23:44:27.362Z,20.02
2023-02-11T23:49:49.044Z,19.97
2023-02-11T23:55:11.506Z,19.96
